sensor_id;sensor_type;location;lat;lon;timestamp;P1;durP1;ratioP1;P2;durP2;ratioP2
16033;SDS011;8121;51.418;6.998;2023-02-18T00:02:52;13.57;;;7.53;;
16033;SDS011;8121;51.418;6.998;2023-02-18T00:12:58;16.27;;;8.10;;
16033;SDS011;8121;51.418;6.998;2023-02-18T00:23:00;15.10;;;10.47;;
16033;SDS011;8121;51.418;6.998;2023-02-18T00:33:04;15.87;;;11.47;;
16033;SDS011;8121;51.418;6.998;2023-02-18T00:43:08;9.43;;;7.40;;
16033;SDS011;8121;51.418;6.998;2023-02-18T00:53:22;19.43;;;7.40;;
16033;SDS011;8121;51.418;6.998;2023-02-18T01:03:24;15.03;;;9.40;;
16033;SDS011;8121;51.418;6.998;2023-02-18T01:13:28;7.70;;;5.90;;
16033;SDS011;8121;51.418;6.998;2023-02-18T01:23:30;7.90;;;5.53;;
16033;SDS011;8121;51.418;6.998;2023-02-18T01:33:36;12.57;;;7.83;;
16033;SDS011;8121;51.418;6.998;2023-02-18T01:43:40;8.30;;;6.57;;
16033;SDS011;8121;51.418;6.998;2023-02-18T01:53:46;11.43;;;7.70;;
16033;SDS011;8121;51.418;6.998;2023-02-18T02:03:50;9.70;;;7.40;;
16033;SDS011;8121;51.418;6.998;2023-02-18T02:24:20;10.27;;;4.30;;
16033;SDS011;8121;51.418;6.998;2023-02-18T02:35:02;7.90;;;6.37;;
16033;SDS011;8121;51.418;6.998;2023-02-18T02:45:20;8.23;;;6.07;;
16033;SDS011;8121;51.418;6.998;2023-02-18T03:17:21;5.93;;;4.13;;
16033;SDS011;8121;51.418;6.998;2023-02-18T03:27:48;4.63;;;4.13;;
16033;SDS011;8121;51.418;6.998;2023-02-18T03:37:56;6.43;;;5.23;;
16033;SDS011;8121;51.418;6.998;2023-02-18T03:48:20;9.30;;;5.80;;
16033;SDS011;8121;51.418;6.998;2023-02-18T04:20:15;6.77;;;4.67;;
16033;SDS011;8121;51.418;6.998;2023-02-18T04:41:04;5.00;;;3.60;;
16033;SDS011;8121;51.418;6.998;2023-02-18T05:46:06;1.40;;;1.30;;
16033;SDS011;8121;51.418;6.998;2023-02-18T05:56:12;1.60;;;1.50;;
16033;SDS011;8121;51.418;6.998;2023-02-18T06:17:35;1.30;;;1.20;;
16033;SDS011;8121;51.418;6.998;2023-02-18T06:28:25;1.40;;;1.30;;
16033;SDS011;8121;51.418;6.998;2023-02-18T07:00:00;1.20;;;1.10;;
16033;SDS011;8121;51.418;6.998;2023-02-18T07:21:14;1.50;;;1.40;;
16033;SDS011;8121;51.418;6.998;2023-02-18T07:31:19;1.53;;;1.37;;
16033;SDS011;8121;51.418;6.998;2023-02-18T07:41:29;2.60;;;1.40;;
16033;SDS011;8121;51.418;6.998;2023-02-18T07:51:32;1.83;;;1.00;;
16033;SDS011;8121;51.418;6.998;2023-02-18T08:01:34;1.13;;;1.03;;
16033;SDS011;8121;51.418;6.998;2023-02-18T08:11:42;0.90;;;0.80;;
16033;SDS011;8121;51.418;6.998;2023-02-18T08:22:00;0.90;;;0.90;;
16033;SDS011;8121;51.418;6.998;2023-02-18T08:32:06;1.30;;;1.20;;
16033;SDS011;8121;51.418;6.998;2023-02-18T08:42:14;1.10;;;1.00;;
16033;SDS011;8121;51.418;6.998;2023-02-18T08:52:58;1.70;;;1.10;;
16033;SDS011;8121;51.418;6.998;2023-02-18T09:03:02;1.17;;;1.07;;
16033;SDS011;8121;51.418;6.998;2023-02-18T09:23:26;8.00;;;1.40;;
16033;SDS011;8121;51.418;6.998;2023-02-18T09:33:46;2.90;;;1.70;;
16033;SDS011;8121;51.418;6.998;2023-02-18T09:54:10;5.90;;;1.77;;
16033;SDS011;8121;51.418;6.998;2023-02-18T10:04:18;4.80;;;1.80;;
16033;SDS011;8121;51.418;6.998;2023-02-18T10:14:43;7.10;;;2.53;;
16033;SDS011;8121;51.418;6.998;2023-02-18T10:24:52;8.87;;;2.10;;
16033;SDS011;8121;51.418;6.998;2023-02-18T10:45:36;4.67;;;1.37;;
16033;SDS011;8121;51.418;6.998;2023-02-18T10:56:13;5.93;;;2.03;;
16033;SDS011;8121;51.418;6.998;2023-02-18T11:06:38;12.57;;;1.37;;
16033;SDS011;8121;51.418;6.998;2023-02-18T11:16:42;5.30;;;1.50;;
16033;SDS011;8121;51.418;6.998;2023-02-18T11:26:45;3.13;;;0.97;;
16033;SDS011;8121;51.418;6.998;2023-02-18T11:36:47;6.40;;;1.33;;
16033;SDS011;8121;51.418;6.998;2023-02-18T11:46:59;4.10;;;1.67;;
16033;SDS011;8121;51.418;6.998;2023-02-18T11:57:02;10.80;;;1.90;;
16033;SDS011;8121;51.418;6.998;2023-02-18T12:07:10;4.07;;;1.90;;
16033;SDS011;8121;51.418;6.998;2023-02-18T12:17:24;2.87;;;1.60;;
16033;SDS011;8121;51.418;6.998;2023-02-18T12:27:35;5.23;;;1.67;;
16033;SDS011;8121;51.418;6.998;2023-02-18T12:37:47;5.23;;;2.37;;
16033;SDS011;8121;51.418;6.998;2023-02-18T12:48:06;6.00;;;3.30;;
16033;SDS011;8121;51.418;6.998;2023-02-18T12:58:17;4.50;;;4.10;;
16033;SDS011;8121;51.418;6.998;2023-02-18T13:08:34;5.27;;;4.07;;
16033;SDS011;8121;51.418;6.998;2023-02-18T13:18:45;4.13;;;3.73;;
16033;SDS011;8121;51.418;6.998;2023-02-18T13:28:54;4.00;;;3.60;;
16033;SDS011;8121;51.418;6.998;2023-02-18T13:39:05;3.43;;;3.20;;
16033;SDS011;8121;51.418;6.998;2023-02-18T13:49:10;6.77;;;4.53;;
16033;SDS011;8121;51.418;6.998;2023-02-18T13:59:16;7.60;;;6.80;;
16033;SDS011;8121;51.418;6.998;2023-02-18T14:09:35;11.47;;;7.73;;
16033;SDS011;8121;51.418;6.998;2023-02-18T14:19:40;14.03;;;7.80;;
16033;SDS011;8121;51.418;6.998;2023-02-18T14:29:43;7.57;;;5.97;;
16033;SDS011;8121;51.418;6.998;2023-02-18T14:39:48;11.93;;;7.37;;
16033;SDS011;8121;51.418;6.998;2023-02-18T14:49:58;15.00;;;6.60;;
16033;SDS011;8121;51.418;6.998;2023-02-18T15:00:04;7.00;;;5.50;;
16033;SDS011;8121;51.418;6.998;2023-02-18T15:10:13;21.77;;;7.03;;
16033;SDS011;8121;51.418;6.998;2023-02-18T15:20:15;5.20;;;4.50;;
16033;SDS011;8121;51.418;6.998;2023-02-18T15:30:23;5.23;;;4.00;;
16033;SDS011;8121;51.418;6.998;2023-02-18T15:40:26;12.60;;;8.03;;
16033;SDS011;8121;51.418;6.998;2023-02-18T15:50:32;10.50;;;6.60;;
16033;SDS011;8121;51.418;6.998;2023-02-18T16:00:37;22.43;;;9.97;;
16033;SDS011;8121;51.418;6.998;2023-02-18T16:10:46;23.23;;;12.13;;
16033;SDS011;8121;51.418;6.998;2023-02-18T16:20:53;12.40;;;8.00;;
16033;SDS011;8121;51.418;6.998;2023-02-18T16:30:59;10.10;;;5.80;;
16033;SDS011;8121;51.418;6.998;2023-02-18T16:41:01;14.47;;;8.90;;
16033;SDS011;8121;51.418;6.998;2023-02-18T16:51:04;14.37;;;9.30;;
16033;SDS011;8121;51.418;6.998;2023-02-18T17:01:13;6.53;;;5.90;;
16033;SDS011;8121;51.418;6.998;2023-02-18T17:11:26;8.53;;;5.30;;
16033;SDS011;8121;51.418;6.998;2023-02-18T17:21:29;6.30;;;4.23;;
16033;SDS011;8121;51.418;6.998;2023-02-18T17:31:34;6.37;;;5.40;;
16033;SDS011;8121;51.418;6.998;2023-02-18T17:41:37;3.87;;;3.20;;
16033;SDS011;8121;51.418;6.998;2023-02-18T17:51:41;4.27;;;3.77;;
16033;SDS011;8121;51.418;6.998;2023-02-18T18:01:43;3.80;;;3.50;;
16033;SDS011;8121;51.418;6.998;2023-02-18T18:11:46;10.10;;;4.40;;
16033;SDS011;8121;51.418;6.998;2023-02-18T18:21:47;6.67;;;3.50;;
16033;SDS011;8121;51.418;6.998;2023-02-18T18:31:50;5.40;;;3.80;;
16033;SDS011;8121;51.418;6.998;2023-02-18T18:41:52;3.20;;;2.90;;
16033;SDS011;8121;51.418;6.998;2023-02-18T18:51:55;6.17;;;4.93;;
16033;SDS011;8121;51.418;6.998;2023-02-18T19:01:57;6.17;;;4.70;;
16033;SDS011;8121;51.418;6.998;2023-02-18T19:12:00;4.43;;;4.00;;
16033;SDS011;8121;51.418;6.998;2023-02-18T19:22:01;4.77;;;3.97;;
16033;SDS011;8121;51.418;6.998;2023-02-18T19:32:05;12.50;;;5.77;;
16033;SDS011;8121;51.418;6.998;2023-02-18T19:42:07;6.40;;;5.20;;
16033;SDS011;8121;51.418;6.998;2023-02-18T19:52:12;6.27;;;4.93;;
16033;SDS011;8121;51.418;6.998;2023-02-18T20:02:15;4.73;;;4.40;;
16033;SDS011;8121;51.418;6.998;2023-02-18T20:12:19;12.03;;;6.53;;
16033;SDS011;8121;51.418;6.998;2023-02-18T20:22:24;7.70;;;5.80;;
16033;SDS011;8121;51.418;6.998;2023-02-18T20:32:27;7.30;;;5.40;;
16033;SDS011;8121;51.418;6.998;2023-02-18T20:42:28;13.30;;;5.70;;
16033;SDS011;8121;51.418;6.998;2023-02-18T20:52:31;5.40;;;4.87;;
16033;SDS011;8121;51.418;6.998;2023-02-18T21:02:33;10.03;;;5.00;;
16033;SDS011;8121;51.418;6.998;2023-02-18T21:12:36;10.00;;;5.30;;
16033;SDS011;8121;51.418;6.998;2023-02-18T21:22:38;8.63;;;5.90;;
16033;SDS011;8121;51.418;6.998;2023-02-18T21:32:41;8.23;;;6.40;;
16033;SDS011;8121;51.418;6.998;2023-02-18T21:42:42;12.30;;;5.70;;
16033;SDS011;8121;51.418;6.998;2023-02-18T21:52:45;18.83;;;6.33;;
16033;SDS011;8121;51.418;6.998;2023-02-18T22:02:47;7.67;;;5.97;;
16033;SDS011;8121;51.418;6.998;2023-02-18T22:12:50;8.50;;;5.60;;
16033;SDS011;8121;51.418;6.998;2023-02-18T22:22:52;8.67;;;6.37;;
16033;SDS011;8121;51.418;6.998;2023-02-18T22:32:55;6.50;;;4.77;;
16033;SDS011;8121;51.418;6.998;2023-02-18T22:42:57;12.10;;;6.30;;
16033;SDS011;8121;51.418;6.998;2023-02-18T22:53:01;9.47;;;7.10;;
16033;SDS011;8121;51.418;6.998;2023-02-18T23:03:02;8.40;;;6.03;;
16033;SDS011;8121;51.418;6.998;2023-02-18T23:13:06;6.23;;;5.60;;
16033;SDS011;8121;51.418;6.998;2023-02-18T23:23:07;6.00;;;4.93;;
16033;SDS011;8121;51.418;6.998;2023-02-18T23:33:11;7.40;;;5.67;;
16033;SDS011;8121;51.418;6.998;2023-02-18T23:43:13;8.17;;;5.13;;
16033;SDS011;8121;51.418;6.998;2023-02-18T23:53:16;12.77;;;7.90;;
